Archival Weather

Central Park

Central Park, New York (KNYC)

Report from: Thursday, September 21, 2023 8:51 PM EDT
Current time: Friday, February 23, 2024 4:20 PM EST

Current weather – Weather history – Daily summaries
Weather forecast

Temperature18.3°C (64.9°F)
Dew point11.1°C (52.0°F)
Winds 3 kts (1.5 m/s, 3.5 mph) North-Northeast (30°)
Visibility10 mi. (16.1 km)
Clouds Sky clear
Altimeter30.31 in.Hg (1026 mB)
Relative humidity63 %
Density altitude166 ft. (51 m)
Sea-level pressure102.5 kPa (1025 mB, 30.28 in.Hg)
Remarks Fully automated report
System requires maintenance
Automated weather observing station with precipitation discriminator
Flight conditions Visual Meteorological Conditions
Raw dataKNYC 220051Z AUTO 03003KT 10SM CLR 18/11 A3031 RMK AO2 SLP254 T01830111 $
An error has occurred. This application may no longer respond until reloaded. Reload 🗙